sensor_id;sensor_type;location;lat;lon;timestamp;pressure;altitude;pressure_sealevel;temperature;humidity
13867;BME280;7003;46.982;15.248;2022-07-23T00:00:33;97204.00;;;21.87;100.00
13867;BME280;7003;46.982;15.248;2022-07-23T00:03:02;97202.81;;;21.92;100.00
13867;BME280;7003;46.982;15.248;2022-07-23T00:05:30;97199.03;;;21.79;100.00
13867;BME280;7003;46.982;15.248;2022-07-23T00:07:57;97196.41;;;21.65;100.00
13867;BME280;7003;46.982;15.248;2022-07-23T00:10:24;97196.41;;;21.65;100.00
13867;BME280;7003;46.982;15.248;2022-07-23T00:12:51;97188.72;;;21.60;100.00
13867;BME280;7003;46.982;15.248;2022-07-23T00:15:18;97185.25;;;21.59;100.00
13867;BME280;7003;46.982;15.248;2022-07-23T00:17:47;97182.09;;;21.68;100.00
13867;BME280;7003;46.982;15.248;2022-07-23T00:20:16;97187.81;;;21.80;100.00
13867;BME280;7003;46.982;15.248;2022-07-23T00:22:46;97187.44;;;21.78;100.00
13867;BME280;7003;46.982;15.248;2022-07-23T00:25:16;97172.72;;;21.79;100.00
13867;BME280;7003;46.982;15.248;2022-07-23T00:27:43;97177.69;;;21.88;100.00
13867;BME280;7003;46.982;15.248;2022-07-23T00:30:11;97170.56;;;21.60;100.00
13867;BME280;7003;46.982;15.248;2022-07-23T00:32:47;97176.06;;;21.39;100.00
13867;BME280;7003;46.982;15.248;2022-07-23T00:35:18;97181.19;;;21.12;100.00
13867;BME280;7003;46.982;15.248;2022-07-23T00:37:45;97180.81;;;21.13;100.00
13867;BME280;7003;46.982;15.248;2022-07-23T00:40:13;97183.13;;;21.11;100.00
13867;BME280;7003;46.982;15.248;2022-07-23T00:42:42;97180.81;;;21.13;100.00
13867;BME280;7003;46.982;15.248;2022-07-23T00:45:09;97182.75;;;21.13;100.00
13867;BME280;7003;46.982;15.248;2022-07-23T00:47:38;97185.44;;;21.20;100.00
13867;BME280;7003;46.982;15.248;2022-07-23T00:50:10;97184.69;;;21.05;100.00
13867;BME280;7003;46.982;15.248;2022-07-23T00:52:38;97193.16;;;21.07;100.00
13867;BME280;7003;46.982;15.248;2022-07-23T00:55:10;97189.72;;;21.03;100.00
13867;BME280;7003;46.982;15.248;2022-07-23T00:57:41;97200.56;;;20.96;100.00
13867;BME280;7003;46.982;15.248;2022-07-23T01:00:12;97199.44;;;20.90;100.00
13867;BME280;7003;46.982;15.248;2022-07-23T01:02:43;97200.94;;;20.91;100.00
13867;BME280;7003;46.982;15.248;2022-07-23T01:05:11;97205.56;;;21.01;100.00
13867;BME280;7003;46.982;15.248;2022-07-23T01:07:41;97195.53;;;20.98;100.00
13867;BME280;7003;46.982;15.248;2022-07-23T01:10:12;97192.81;;;20.98;100.00
13867;BME280;7003;46.982;15.248;2022-07-23T01:13:02;97197.06;;;20.99;100.00
13867;BME280;7003;46.982;15.248;2022-07-23T01:15:32;97198.66;;;20.86;100.00
13867;BME280;7003;46.982;15.248;2022-07-23T01:18:00;97190.22;;;20.52;100.00
13867;BME280;7003;46.982;15.248;2022-07-23T01:20:30;97184.44;;;20.47;100.00
13867;BME280;7003;46.982;15.248;2022-07-23T01:22:59;97178.28;;;20.43;100.00
13867;BME280;7003;46.982;15.248;2022-07-23T01:25:28;97190.22;;;20.52;100.00
13867;BME280;7003;46.982;15.248;2022-07-23T01:27:58;97182.53;;;20.44;100.00
13867;BME280;7003;46.982;15.248;2022-07-23T01:30:27;97182.13;;;20.49;100.00
13867;BME280;7003;46.982;15.248;2022-07-23T01:32:54;97177.47;;;20.63;100.00
13867;BME280;7003;46.982;15.248;2022-07-23T01:35:24;97179.78;;;20.72;100.00
13867;BME280;7003;46.982;15.248;2022-07-23T01:37:54;97177.47;;;20.74;100.00
13867;BME280;7003;46.982;15.248;2022-07-23T01:40:22;97182.47;;;20.75;100.00
13867;BME280;7003;46.982;15.248;2022-07-23T01:42:49;97176.25;;;20.89;100.00
13867;BME280;7003;46.982;15.248;2022-07-23T01:45:17;97170.84;;;20.86;100.00
13867;BME280;7003;46.982;15.248;2022-07-23T01:47:44;97162.44;;;20.66;100.00
13867;BME280;7003;46.982;15.248;2022-07-23T01:50:14;97167.06;;;20.62;100.00
13867;BME280;7003;46.982;15.248;2022-07-23T01:52:44;97167.06;;;20.55;100.00
13867;BME280;7003;46.982;15.248;2022-07-23T01:55:13;97159.34;;;20.57;100.00
13867;BME280;7003;46.982;15.248;2022-07-23T01:57:45;97159.69;;;20.73;100.00
13867;BME280;7003;46.982;15.248;2022-07-23T02:00:15;97161.59;;;20.90;100.00
13867;BME280;7003;46.982;15.248;2022-07-23T02:02:43;97160.03;;;20.89;100.00
13867;BME280;7003;46.982;15.248;2022-07-23T02:05:10;97166.19;;;20.93;100.00
13867;BME280;7003;46.982;15.248;2022-07-23T02:07:37;97163.84;;;21.06;100.00
13867;BME280;7003;46.982;15.248;2022-07-23T02:10:05;97162.28;;;21.01;100.00
13867;BME280;7003;46.982;15.248;2022-07-23T02:12:32;97171.94;;;21.02;100.00
13867;BME280;7003;46.982;15.248;2022-07-23T02:15:05;97171.94;;;20.99;100.00
13867;BME280;7003;46.982;15.248;2022-07-23T02:17:35;97185.50;;;20.95;100.00
13867;BME280;7003;46.982;15.248;2022-07-23T02:20:04;97173.59;;;20.68;100.00
13867;BME280;7003;46.982;15.248;2022-07-23T02:22:34;97170.97;;;20.43;100.00
13867;BME280;7003;46.982;15.248;2022-07-23T02:25:02;97170.16;;;20.21;100.00
13867;BME280;7003;46.982;15.248;2022-07-23T02:27:30;97165.16;;;20.30;100.00
13867;BME280;7003;46.982;15.248;2022-07-23T02:29:57;97170.94;;;20.29;100.00
13867;BME280;7003;46.982;15.248;2022-07-23T02:32:26;97172.50;;;20.41;100.00
13867;BME280;7003;46.982;15.248;2022-07-23T02:34:56;97164.38;;;20.51;100.00
13867;BME280;7003;46.982;15.248;2022-07-23T02:37:23;97171.72;;;20.58;100.00
13867;BME280;7003;46.982;15.248;2022-07-23T02:39:53;97172.47;;;20.58;100.00
13867;BME280;7003;46.982;15.248;2022-07-23T02:42:20;97167.81;;;20.69;100.00
13867;BME280;7003;46.982;15.248;2022-07-23T02:44:49;97172.81;;;20.67;100.00
13867;BME280;7003;46.982;15.248;2022-07-23T02:47:17;97172.81;;;20.67;100.00
13867;BME280;7003;46.982;15.248;2022-07-23T02:49:46;97160.84;;;20.68;100.00
13867;BME280;7003;46.982;15.248;2022-07-23T02:52:15;97163.97;;;20.67;100.00
13867;BME280;7003;46.982;15.248;2022-07-23T02:54:48;97163.19;;;20.66;100.00
13867;BME280;7003;46.982;15.248;2022-07-23T02:57:15;97159.75;;;20.59;100.00
13867;BME280;7003;46.982;15.248;2022-07-23T02:59:44;97151.66;;;20.48;100.00
13867;BME280;7003;46.982;15.248;2022-07-23T03:02:12;97161.72;;;20.33;100.00
13867;BME280;7003;46.982;15.248;2022-07-23T03:04:39;97156.66;;;20.21;100.00
13867;BME280;7003;46.982;15.248;2022-07-23T03:07:09;97142.78;;;20.16;100.00
13867;BME280;7003;46.982;15.248;2022-07-23T03:09:36;97147.41;;;20.22;100.00
13867;BME280;7003;46.982;15.248;2022-07-23T03:12:04;97140.47;;;20.25;100.00
13867;BME280;7003;46.982;15.248;2022-07-23T03:14:31;97142.00;;;20.29;100.00
13867;BME280;7003;46.982;15.248;2022-07-23T03:16:59;97145.88;;;20.07;100.00
13867;BME280;7003;46.982;15.248;2022-07-23T03:19:29;97147.81;;;19.96;100.00
13867;BME280;7003;46.982;15.248;2022-07-23T03:21:56;97137.41;;;19.94;100.00
13867;BME280;7003;46.982;15.248;2022-07-23T03:24:31;97140.84;;;19.91;100.00
13867;BME280;7003;46.982;15.248;2022-07-23T03:27:13;97147.03;;;19.95;100.00
13867;BME280;7003;46.982;15.248;2022-07-23T03:29:44;97148.19;;;19.94;100.00
13867;BME280;7003;46.982;15.248;2022-07-23T03:32:13;97145.09;;;19.85;100.00
13867;BME280;7003;46.982;15.248;2022-07-23T03:34:41;97143.19;;;19.86;100.00
13867;BME280;7003;46.982;15.248;2022-07-23T03:37:08;97146.28;;;19.74;100.00
13867;BME280;7003;46.982;15.248;2022-07-23T03:39:40;97146.22;;;19.49;100.00
13867;BME280;7003;46.982;15.248;2022-07-23T03:42:10;97153.19;;;19.57;100.00
13867;BME280;7003;46.982;15.248;2022-07-23T03:44:37;97151.66;;;19.67;100.00
13867;BME280;7003;46.982;15.248;2022-07-23T03:47:07;97159.75;;;19.67;100.00
13867;BME280;7003;46.982;15.248;2022-07-23T03:49:37;97161.63;;;19.48;100.00
13867;BME280;7003;46.982;15.248;2022-07-23T03:52:09;97164.66;;;19.40;100.00
13867;BME280;7003;46.982;15.248;2022-07-23T03:54:37;97171.59;;;19.44;100.00
13867;BME280;7003;46.982;15.248;2022-07-23T03:57:09;97162.41;;;19.49;100.00
13867;BME280;7003;46.982;15.248;2022-07-23T03:59:37;97172.44;;;19.63;100.00
13867;BME280;7003;46.982;15.248;2022-07-23T04:02:07;97174.78;;;19.85;100.00
13867;BME280;7003;46.982;15.248;2022-07-23T04:04:37;97181.34;;;19.77;100.00
13867;BME280;7003;46.982;15.248;2022-07-23T04:07:05;97184.81;;;19.92;100.00
13867;BME280;7003;46.982;15.248;2022-07-23T04:09:34;97182.50;;;19.83;100.00
13867;BME280;7003;46.982;15.248;2022-07-23T04:12:05;97187.53;;;19.74;100.00
13867;BME280;7003;46.982;15.248;2022-07-23T04:14:36;97191.34;;;19.63;100.00
13867;BME280;7003;46.982;15.248;2022-07-23T04:17:08;97184.75;;;19.53;100.00
13867;BME280;7003;46.982;15.248;2022-07-23T04:19:39;97189.81;;;19.83;100.00
13867;BME280;7003;46.982;15.248;2022-07-23T04:22:09;97186.72;;;19.70;100.00
13867;BME280;7003;46.982;15.248;2022-07-23T04:24:42;97180.97;;;19.89;100.00
13867;BME280;7003;46.982;15.248;2022-07-23T04:27:13;97186.38;;;19.89;100.00
13867;BME280;7003;46.982;15.248;2022-07-23T04:29:42;97180.56;;;19.91;100.00
13867;BME280;7003;46.982;15.248;2022-07-23T04:32:10;97183.66;;;19.86;100.00
13867;BME280;7003;46.982;15.248;2022-07-23T04:34:38;97184.06;;;19.91;100.00
13867;BME280;7003;46.982;15.248;2022-07-23T04:37:09;97185.19;;;19.83;100.00
13867;BME280;7003;46.982;15.248;2022-07-23T04:39:37;97180.59;;;19.87;100.00
13867;BME280;7003;46.982;15.248;2022-07-23T04:42:06;97177.50;;;19.92;100.00
13867;BME280;7003;46.982;15.248;2022-07-23T04:44:34;97173.28;;;20.02;100.00
13867;BME280;7003;46.982;15.248;2022-07-23T04:47:06;97177.13;;;20.15;100.00
13867;BME280;7003;46.982;15.248;2022-07-23T04:49:35;97179.41;;;20.31;100.00
13867;BME280;7003;46.982;15.248;2022-07-23T04:52:03;97176.75;;;20.42;100.00
13867;BME280;7003;46.982;15.248;2022-07-23T04:54:34;97185.22;;;20.22;100.00
13867;BME280;7003;46.982;15.248;2022-07-23T04:57:05;97180.19;;;20.24;100.00
13867;BME280;7003;46.982;15.248;2022-07-23T04:59:35;97183.66;;;20.14;100.00
13867;BME280;7003;46.982;15.248;2022-07-23T05:02:08;97184.06;;;20.30;100.00
13867;BME280;7003;46.982;15.248;2022-07-23T05:04:36;97174.78;;;20.56;100.00
13867;BME280;7003;46.982;15.248;2022-07-23T05:07:05;97180.09;;;20.95;100.00
13867;BME280;7003;46.982;15.248;2022-07-23T05:09:33;97173.03;;;21.26;100.00
13867;BME280;7003;46.982;15.248;2022-07-23T05:12:01;97173.78;;;21.34;100.00
13867;BME280;7003;46.982;15.248;2022-07-23T05:14:31;97176.44;;;21.44;100.00
13867;BME280;7003;46.982;15.248;2022-07-23T05:16:58;97169.63;;;21.81;100.00
13867;BME280;7003;46.982;15.248;2022-07-23T05:19:30;97170.78;;;22.32;100.00
13867;BME280;7003;46.982;15.248;2022-07-23T05:21:58;97168.94;;;22.62;100.00
13867;BME280;7003;46.982;15.248;2022-07-23T05:24:26;97164.72;;;22.99;100.00
13867;BME280;7003;46.982;15.248;2022-07-23T05:26:56;97160.75;;;23.37;100.00
13867;BME280;7003;46.982;15.248;2022-07-23T05:29:25;97168.50;;;23.66;100.00
13867;BME280;7003;46.982;15.248;2022-07-23T05:31:53;97162.81;;;23.84;100.00
13867;BME280;7003;46.982;15.248;2022-07-23T05:34:23;97177.13;;;24.11;100.00
13867;BME280;7003;46.982;15.248;2022-07-23T05:36:52;97163.53;;;24.38;100.00
13867;BME280;7003;46.982;15.248;2022-07-23T05:39:20;97164.06;;;24.29;100.00
13867;BME280;7003;46.982;15.248;2022-07-23T05:41:48;97165.88;;;24.36;100.00
13867;BME280;7003;46.982;15.248;2022-07-23T05:44:17;97163.72;;;24.47;100.00
13867;BME280;7003;46.982;15.248;2022-07-23T05:46:46;97154.44;;;24.68;100.00
13867;BME280;7003;46.982;15.248;2022-07-23T05:49:14;97150.81;;;24.94;100.00
13867;BME280;7003;46.982;15.248;2022-07-23T05:51:44;97153.41;;;25.21;100.00
13867;BME280;7003;46.982;15.248;2022-07-23T05:54:13;97150.88;;;25.66;100.00
13867;BME280;7003;46.982;15.248;2022-07-23T05:56:41;97140.06;;;25.79;100.00
13867;BME280;7003;46.982;15.248;2022-07-23T05:59:11;97150.38;;;25.87;100.00
13867;BME280;7003;46.982;15.248;2022-07-23T06:01:40;97146.28;;;26.12;100.00
13867;BME280;7003;46.982;15.248;2022-07-23T06:04:10;97147.22;;;26.21;100.00
13867;BME280;7003;46.982;15.248;2022-07-23T06:06:41;97149.19;;;26.21;100.00
13867;BME280;7003;46.982;15.248;2022-07-23T06:09:13;97143.50;;;26.15;100.00
13867;BME280;7003;46.982;15.248;2022-07-23T06:11:41;97145.53;;;26.27;100.00
13867;BME280;7003;46.982;15.248;2022-07-23T06:14:09;97139.81;;;26.38;100.00
13867;BME280;7003;46.982;15.248;2022-07-23T06:16:36;97138.88;;;26.44;100.00
13867;BME280;7003;46.982;15.248;2022-07-23T06:19:06;97141.84;;;26.50;100.00
13867;BME280;7003;46.982;15.248;2022-07-23T06:21:34;97146.88;;;26.52;100.00
13867;BME280;7003;46.982;15.248;2022-07-23T06:24:04;97145.78;;;26.78;100.00
13867;BME280;7003;46.982;15.248;2022-07-23T06:26:33;97140.88;;;26.86;100.00
13867;BME280;7003;46.982;15.248;2022-07-23T06:29:04;97142.16;;;26.81;100.00
13867;BME280;7003;46.982;15.248;2022-07-23T06:31:31;97146.50;;;26.95;100.00
13867;BME280;7003;46.982;15.248;2022-07-23T06:34:01;97145.78;;;27.07;100.00
13867;BME280;7003;46.982;15.248;2022-07-23T06:36:32;97140.13;;;27.27;100.00
13867;BME280;7003;46.982;15.248;2022-07-23T06:39:00;97147.69;;;27.48;100.00
13867;BME280;7003;46.982;15.248;2022-07-23T06:41:30;97145.97;;;27.67;100.00
13867;BME280;7003;46.982;15.248;2022-07-23T06:43:59;97146.06;;;27.76;100.00
13867;BME280;7003;46.982;15.248;2022-07-23T06:46:27;97146.91;;;27.98;100.00
13867;BME280;7003;46.982;15.248;2022-07-23T06:48:54;97152.94;;;27.80;100.00
13867;BME280;7003;46.982;15.248;2022-07-23T06:51:22;97157.00;;;28.01;100.00
13867;BME280;7003;46.982;15.248;2022-07-23T06:53:51;97153.25;;;28.20;100.00
13867;BME280;7003;46.982;15.248;2022-07-23T06:56:21;97156.34;;;28.44;100.00
13867;BME280;7003;46.982;15.248;2022-07-23T06:58:51;97153.66;;;28.66;100.00
13867;BME280;7003;46.982;15.248;2022-07-23T07:01:23;97156.44;;;28.88;100.00
13867;BME280;7003;46.982;15.248;2022-07-23T07:03:53;97168.78;;;28.92;100.00
13867;BME280;7003;46.982;15.248;2022-07-23T07:06:23;97158.09;;;28.85;100.00
13867;BME280;7003;46.982;15.248;2022-07-23T07:08:54;97166.56;;;28.78;100.00
13867;BME280;7003;46.982;15.248;2022-07-23T07:11:22;97172.88;;;28.75;100.00
13867;BME280;7003;46.982;15.248;2022-07-23T07:13:50;97179.47;;;28.65;100.00
13867;BME280;7003;46.982;15.248;2022-07-23T07:16:19;97174.72;;;28.56;100.00
13867;BME280;7003;46.982;15.248;2022-07-23T07:18:48;97181.19;;;28.50;100.00
13867;BME280;7003;46.982;15.248;2022-07-23T07:21:16;97181.59;;;28.61;100.00
13867;BME280;7003;46.982;15.248;2022-07-23T07:23:44;97182.97;;;28.65;100.00
13867;BME280;7003;46.982;15.248;2022-07-23T07:26:12;97189.75;;;28.86;100.00
13867;BME280;7003;46.982;15.248;2022-07-23T07:28:42;97187.13;;;28.83;100.00
13867;BME280;7003;46.982;15.248;2022-07-23T07:31:10;97189.94;;;28.92;100.00
13867;BME280;7003;46.982;15.248;2022-07-23T07:33:40;97183.16;;;29.05;99.82
13867;BME280;7003;46.982;15.248;2022-07-23T07:36:11;97177.56;;;29.09;95.69
13867;BME280;7003;46.982;15.248;2022-07-23T07:38:41;97181.34;;;29.02;92.34
13867;BME280;7003;46.982;15.248;2022-07-23T07:41:09;97184.69;;;29.28;92.31
13867;BME280;7003;46.982;15.248;2022-07-23T07:43:37;97181.84;;;29.63;88.26
13867;BME280;7003;46.982;15.248;2022-07-23T07:46:05;97187.44;;;29.90;85.64
13867;BME280;7003;46.982;15.248;2022-07-23T07:48:38;97186.03;;;30.16;87.12
13867;BME280;7003;46.982;15.248;2022-07-23T07:51:06;97190.91;;;30.21;85.96
13867;BME280;7003;46.982;15.248;2022-07-23T07:53:35;97190.91;;;30.21;87.72
13867;BME280;7003;46.982;15.248;2022-07-23T07:56:03;97195.06;;;30.26;82.41
13867;BME280;7003;46.982;15.248;2022-07-23T07:58:31;97200.38;;;30.30;81.57
13867;BME280;7003;46.982;15.248;2022-07-23T08:00:59;97203.69;;;30.15;80.00
13867;BME280;7003;46.982;15.248;2022-07-23T08:03:28;97198.16;;;29.97;78.47
13867;BME280;7003;46.982;15.248;2022-07-23T08:05:56;97200.00;;;30.00;85.16
13867;BME280;7003;46.982;15.248;2022-07-23T08:08:26;97189.03;;;30.00;81.64
13867;BME280;7003;46.982;15.248;2022-07-23T08:10:58;97203.97;;;29.99;82.72
13867;BME280;7003;46.982;15.248;2022-07-23T08:13:28;97197.28;;;30.09;79.01
13867;BME280;7003;46.982;15.248;2022-07-23T08:15:58;97206.63;;;30.30;81.91
13867;BME280;7003;46.982;15.248;2022-07-23T08:18:28;97200.69;;;30.32;79.31
13867;BME280;7003;46.982;15.248;2022-07-23T08:20:58;97198.28;;;30.43;79.49
13867;BME280;7003;46.982;15.248;2022-07-23T08:23:26;97197.03;;;30.44;77.36
13867;BME280;7003;46.982;15.248;2022-07-23T08:25:54;97191.09;;;30.45;75.61
13867;BME280;7003;46.982;15.248;2022-07-23T08:28:26;97194.34;;;30.62;79.51
13867;BME280;7003;46.982;15.248;2022-07-23T08:30:54;97191.31;;;30.96;69.48
13867;BME280;7003;46.982;15.248;2022-07-23T08:33:24;97185.22;;;31.11;67.09
13867;BME280;7003;46.982;15.248;2022-07-23T08:35:51;97184.69;;;31.40;64.77
13867;BME280;7003;46.982;15.248;2022-07-23T08:38:22;97189.84;;;31.56;62.17
13867;BME280;7003;46.982;15.248;2022-07-23T08:40:52;97192.22;;;31.81;61.78
13867;BME280;7003;46.982;15.248;2022-07-23T08:43:23;97194.63;;;32.21;61.71
13867;BME280;7003;46.982;15.248;2022-07-23T08:45:57;97180.66;;;32.58;58.65
13867;BME280;7003;46.982;15.248;2022-07-23T08:48:28;97184.34;;;32.78;55.68
13867;BME280;7003;46.982;15.248;2022-07-23T08:50:57;97174.75;;;32.89;52.08
13867;BME280;7003;46.982;15.248;2022-07-23T08:53:26;97177.44;;;32.98;47.64
13867;BME280;7003;46.982;15.248;2022-07-23T08:55:57;97180.56;;;32.91;48.22
13867;BME280;7003;46.982;15.248;2022-07-23T08:58:28;97184.16;;;32.82;48.38
13867;BME280;7003;46.982;15.248;2022-07-23T09:00:58;97189.69;;;32.34;46.10
13867;BME280;7003;46.982;15.248;2022-07-23T09:03:27;97186.47;;;32.36;44.87
13867;BME280;7003;46.982;15.248;2022-07-23T09:05:59;97185.41;;;32.33;46.19
13867;BME280;7003;46.982;15.248;2022-07-23T09:08:35;97185.34;;;32.09;50.03
13867;BME280;7003;46.982;15.248;2022-07-23T09:11:04;97178.94;;;32.13;49.01
13867;BME280;7003;46.982;15.248;2022-07-23T09:13:36;97172.81;;;32.08;48.57
13867;BME280;7003;46.982;15.248;2022-07-23T09:16:10;97178.34;;;31.76;49.16
13867;BME280;7003;46.982;15.248;2022-07-23T09:18:44;97175.88;;;31.78;48.44
13867;BME280;7003;46.982;15.248;2022-07-23T09:21:17;97185.53;;;32.06;53.02
13867;BME280;7003;46.982;15.248;2022-07-23T09:23:47;97191.50;;;32.04;52.51
13867;BME280;7003;46.982;15.248;2022-07-23T09:26:33;97197.31;;;31.73;52.57
13867;BME280;7003;46.982;15.248;2022-07-23T09:29:08;97202.16;;;31.79;53.55
13867;BME280;7003;46.982;15.248;2022-07-23T09:31:49;97199.75;;;31.71;51.66
13867;BME280;7003;46.982;15.248;2022-07-23T09:34:21;97207.88;;;31.66;51.59
13867;BME280;7003;46.982;15.248;2022-07-23T09:36:53;97206.78;;;31.72;52.22
13867;BME280;7003;46.982;15.248;2022-07-23T09:39:26;97196.97;;;31.81;51.61
13867;BME280;7003;46.982;15.248;2022-07-23T09:41:54;97188.00;;;32.04;53.33
13867;BME280;7003;46.982;15.248;2022-07-23T09:44:22;97188.81;;;32.28;50.99
13867;BME280;7003;46.982;15.248;2022-07-23T09:46:58;97176.47;;;32.86;52.04
13867;BME280;7003;46.982;15.248;2022-07-23T09:49:30;97171.16;;;32.97;45.21
13867;BME280;7003;46.982;15.248;2022-07-23T09:51:59;97166.69;;;33.00;44.88
13867;BME280;7003;46.982;15.248;2022-07-23T09:54:30;97176.94;;;32.84;44.40
13867;BME280;7003;46.982;15.248;2022-07-23T09:57:00;97175.72;;;33.00;42.04
13867;BME280;7003;46.982;15.248;2022-07-23T09:59:32;97166.94;;;33.26;42.97
13867;BME280;7003;46.982;15.248;2022-07-23T10:02:05;97163.50;;;33.60;43.48
13867;BME280;7003;46.982;15.248;2022-07-23T10:04:35;97164.84;;;33.99;40.53
13867;BME280;7003;46.982;15.248;2022-07-23T10:07:07;97167.47;;;34.09;39.19
13867;BME280;7003;46.982;15.248;2022-07-23T10:09:40;97162.88;;;33.85;40.40
13867;BME280;7003;46.982;15.248;2022-07-23T10:12:11;97165.00;;;33.61;41.51
13867;BME280;7003;46.982;15.248;2022-07-23T10:15:02;97168.34;;;33.50;38.61
13867;BME280;7003;46.982;15.248;2022-07-23T10:17:32;97165.97;;;33.58;39.78
13867;BME280;7003;46.982;15.248;2022-07-23T10:20:00;97160.81;;;33.66;40.72
13867;BME280;7003;46.982;15.248;2022-07-23T10:22:30;97156.44;;;33.59;40.93
13867;BME280;7003;46.982;15.248;2022-07-23T10:25:10;97162.34;;;33.81;41.31
13867;BME280;7003;46.982;15.248;2022-07-23T10:28:07;97145.63;;;34.05;39.01
13867;BME280;7003;46.982;15.248;2022-07-23T10:30:45;97146.38;;;34.06;37.63
13867;BME280;7003;46.982;15.248;2022-07-23T10:33:31;97143.31;;;34.04;36.57
13867;BME280;7003;46.982;15.248;2022-07-23T10:36:04;97147.91;;;34.07;38.87
13867;BME280;7003;46.982;15.248;2022-07-23T10:38:39;97152.78;;;34.17;38.12
13867;BME280;7003;46.982;15.248;2022-07-23T10:41:12;97151.19;;;34.46;38.64
13867;BME280;7003;46.982;15.248;2022-07-23T10:43:40;97150.13;;;34.84;37.35
13867;BME280;7003;46.982;15.248;2022-07-23T10:46:21;97142.03;;;35.06;33.83
13867;BME280;7003;46.982;15.248;2022-07-23T10:49:24;97150.19;;;34.49;34.67
13867;BME280;7003;46.982;15.248;2022-07-23T10:52:24;97153.03;;;35.00;34.84
13867;BME280;7003;46.982;15.248;2022-07-23T10:54:54;97158.47;;;34.89;33.47
13867;BME280;7003;46.982;15.248;2022-07-23T10:57:24;97149.47;;;34.94;30.17
13867;BME280;7003;46.982;15.248;2022-07-23T11:00:20;97149.44;;;34.68;32.65
13867;BME280;7003;46.982;15.248;2022-07-23T11:02:50;97132.84;;;34.68;31.81
13867;BME280;7003;46.982;15.248;2022-07-23T11:05:20;97135.47;;;34.57;34.93
13867;BME280;7003;46.982;15.248;2022-07-23T11:08:11;97124.50;;;34.63;33.47
13867;BME280;7003;46.982;15.248;2022-07-23T11:10:42;97134.19;;;34.99;33.96
13867;BME280;7003;46.982;15.248;2022-07-23T11:13:32;97126.75;;;35.36;32.20
13867;BME280;7003;46.982;15.248;2022-07-23T11:16:12;97118.25;;;35.14;32.60
13867;BME280;7003;46.982;15.248;2022-07-23T11:18:58;97114.06;;;35.24;33.31
13867;BME280;7003;46.982;15.248;2022-07-23T11:21:46;97118.06;;;35.55;30.54
13867;BME280;7003;46.982;15.248;2022-07-23T11:24:16;97114.44;;;35.37;30.10
13867;BME280;7003;46.982;15.248;2022-07-23T11:27:02;97122.06;;;34.91;31.43
13867;BME280;7003;46.982;15.248;2022-07-23T11:29:43;97114.38;;;34.14;32.45
13867;BME280;7003;46.982;15.248;2022-07-23T11:32:33;97113.13;;;34.15;35.41
13867;BME280;7003;46.982;15.248;2022-07-23T11:35:22;97112.13;;;34.18;33.25
13867;BME280;7003;46.982;15.248;2022-07-23T11:37:52;97116.09;;;34.31;35.44
13867;BME280;7003;46.982;15.248;2022-07-23T11:40:24;97108.56;;;33.91;32.56
13867;BME280;7003;46.982;15.248;2022-07-23T11:42:58;97105.81;;;33.91;33.86
13867;BME280;7003;46.982;15.248;2022-07-23T11:45:32;97101.84;;;34.18;35.16
13867;BME280;7003;46.982;15.248;2022-07-23T11:48:02;97102.47;;;34.68;35.13
13867;BME280;7003;46.982;15.248;2022-07-23T11:50:33;97102.84;;;35.33;33.12
13867;BME280;7003;46.982;15.248;2022-07-23T11:53:02;97100.03;;;35.65;34.48
13867;BME280;7003;46.982;15.248;2022-07-23T11:55:32;97095.81;;;35.69;34.13
13867;BME280;7003;46.982;15.248;2022-07-23T11:58:02;97096.53;;;35.70;33.17
13867;BME280;7003;46.982;15.248;2022-07-23T12:00:31;97084.84;;;35.86;33.10
13867;BME280;7003;46.982;15.248;2022-07-23T12:03:01;97095.34;;;36.24;30.67
13867;BME280;7003;46.982;15.248;2022-07-23T12:05:34;97085.41;;;36.01;31.14
13867;BME280;7003;46.982;15.248;2022-07-23T12:08:08;97083.34;;;35.85;30.55
13867;BME280;7003;46.982;15.248;2022-07-23T12:10:40;97092.63;;;35.82;32.09
13867;BME280;7003;46.982;15.248;2022-07-23T12:13:12;97075.13;;;35.65;32.60
13867;BME280;7003;46.982;15.248;2022-07-23T12:15:47;97072.84;;;34.69;32.58
13867;BME280;7003;46.982;15.248;2022-07-23T12:18:20;97065.66;;;34.57;34.40
13867;BME280;7003;46.982;15.248;2022-07-23T12:20:49;97065.47;;;34.86;37.04
13867;BME280;7003;46.982;15.248;2022-07-23T12:23:22;97060.34;;;34.73;33.04
13867;BME280;7003;46.982;15.248;2022-07-23T12:25:51;97059.75;;;34.69;34.77
13867;BME280;7003;46.982;15.248;2022-07-23T12:28:26;97064.81;;;35.23;35.45
13867;BME280;7003;46.982;15.248;2022-07-23T12:30:55;97062.94;;;35.77;33.78
13867;BME280;7003;46.982;15.248;2022-07-23T12:33:25;97058.75;;;36.04;33.40
13867;BME280;7003;46.982;15.248;2022-07-23T12:35:56;97064.75;;;35.91;34.64
13867;BME280;7003;46.982;15.248;2022-07-23T12:38:27;97050.19;;;36.02;32.12
13867;BME280;7003;46.982;15.248;2022-07-23T12:40:58;97051.56;;;36.23;30.61
13867;BME280;7003;46.982;15.248;2022-07-23T12:43:29;97046.41;;;35.99;32.42
13867;BME280;7003;46.982;15.248;2022-07-23T12:46:03;97049.34;;;35.79;34.78
13867;BME280;7003;46.982;15.248;2022-07-23T12:48:35;97040.63;;;35.55;36.67
13867;BME280;7003;46.982;15.248;2022-07-23T12:51:04;97044.69;;;35.65;33.73
13867;BME280;7003;46.982;15.248;2022-07-23T12:53:40;97046.59;;;35.84;31.51
13867;BME280;7003;46.982;15.248;2022-07-23T12:56:14;97048.22;;;36.08;31.53
13867;BME280;7003;46.982;15.248;2022-07-23T12:58:47;97044.66;;;36.02;34.35
13867;BME280;7003;46.982;15.248;2022-07-23T13:01:26;97047.38;;;35.85;33.55
13867;BME280;7003;46.982;15.248;2022-07-23T13:04:00;97048.88;;;35.43;32.25
13867;BME280;7003;46.982;15.248;2022-07-23T13:06:29;97042.09;;;35.13;33.39
13867;BME280;7003;46.982;15.248;2022-07-23T13:09:02;97041.31;;;34.81;37.16
13867;BME280;7003;46.982;15.248;2022-07-23T13:11:32;97036.31;;;34.33;36.70
13867;BME280;7003;46.982;15.248;2022-07-23T13:14:03;97038.38;;;33.78;36.90